EmailTwitter


Observations de surface / France / LFBD (07510)

Régions: Québec | Canada | États-Unis | Europe | France | UK | Elsewhere
Station
Affichage
Infos & localisation pour LFBD (07510) | Aide pour décoder les METARs

Observations prises le 2017-04-24 à 09H00 UTC à BORDEAUX/MERIGNA, FR (LFBD)

Température: 16.0 Celsius

Point de rosée: 3.0 Celsius

Humidité relative: 42%

Vents: Nord à 7 km/h ou 4 noeuds.

Pression au niveau moyen de la mer: 101.60 kilopascals.

Observation METAR:

LFBD 240900Z AUTO 35004KT 290V040 CAVOK 16/03 Q1016 NOSIG=